sensor_id;sensor_type;location;lat;lon;timestamp;P1;durP1;ratioP1;P2;durP2;ratioP2
17449;SDS011;8842;51.244;7.102;2023-03-14T00:00:27;10.17;;;9.67;;
17449;SDS011;8842;51.244;7.102;2023-03-14T00:05:31;10.30;;;9.80;;
17449;SDS011;8842;51.244;7.102;2023-03-14T00:10:36;10.47;;;9.97;;
17449;SDS011;8842;51.244;7.102;2023-03-14T00:15:48;10.03;;;9.53;;
17449;SDS011;8842;51.244;7.102;2023-03-14T00:20:52;10.13;;;9.63;;
17449;SDS011;8842;51.244;7.102;2023-03-14T00:26:06;10.50;;;10.00;;
17449;SDS011;8842;51.244;7.102;2023-03-14T00:31:21;10.80;;;10.20;;
17449;SDS011;8842;51.244;7.102;2023-03-14T00:36:25;10.60;;;10.03;;
17449;SDS011;8842;51.244;7.102;2023-03-14T00:41:40;10.47;;;9.97;;
17449;SDS011;8842;51.244;7.102;2023-03-14T00:46:44;10.50;;;10.00;;
17449;SDS011;8842;51.244;7.102;2023-03-14T00:52:01;10.27;;;9.77;;
17449;SDS011;8842;51.244;7.102;2023-03-14T00:57:06;9.80;;;9.30;;
17449;SDS011;8842;51.244;7.102;2023-03-14T01:02:20;9.60;;;9.10;;
17449;SDS011;8842;51.244;7.102;2023-03-14T01:07:24;12.50;;;11.30;;
17449;SDS011;8842;51.244;7.102;2023-03-14T01:12:39;11.10;;;10.50;;
17449;SDS011;8842;51.244;7.102;2023-03-14T01:17:43;12.63;;;11.97;;
17449;SDS011;8842;51.244;7.102;2023-03-14T01:22:54;12.80;;;12.10;;
17449;SDS011;8842;51.244;7.102;2023-03-14T01:27:59;13.20;;;12.50;;
17449;SDS011;8842;51.244;7.102;2023-03-14T01:33:10;13.70;;;13.00;;
17449;SDS011;8842;51.244;7.102;2023-03-14T01:38:17;13.23;;;12.53;;
17449;SDS011;8842;51.244;7.102;2023-03-14T01:43:28;12.60;;;12.00;;
17449;SDS011;8842;51.244;7.102;2023-03-14T01:48:34;13.17;;;12.47;;
17449;SDS011;8842;51.244;7.102;2023-03-14T01:53:46;13.80;;;13.10;;
17449;SDS011;8842;51.244;7.102;2023-03-14T01:58:52;13.63;;;12.93;;
17449;SDS011;8842;51.244;7.102;2023-03-14T02:04:04;13.83;;;13.13;;
17449;SDS011;8842;51.244;7.102;2023-03-14T02:09:10;13.30;;;12.60;;
17449;SDS011;8842;51.244;7.102;2023-03-14T02:14:25;12.73;;;12.03;;
17449;SDS011;8842;51.244;7.102;2023-03-14T02:19:43;13.17;;;12.47;;
17449;SDS011;8842;51.244;7.102;2023-03-14T02:25:02;12.97;;;12.27;;
17449;SDS011;8842;51.244;7.102;2023-03-14T02:30:09;13.00;;;12.30;;
17449;SDS011;8842;51.244;7.102;2023-03-14T02:35:17;12.93;;;12.23;;
17449;SDS011;8842;51.244;7.102;2023-03-14T02:40:30;13.10;;;12.40;;
17449;SDS011;8842;51.244;7.102;2023-03-14T02:45:38;13.13;;;12.43;;
17449;SDS011;8842;51.244;7.102;2023-03-14T02:50:54;13.27;;;12.57;;
17449;SDS011;8842;51.244;7.102;2023-03-14T02:56:00;13.40;;;12.70;;
17449;SDS011;8842;51.244;7.102;2023-03-14T03:01:12;13.13;;;12.43;;
17449;SDS011;8842;51.244;7.102;2023-03-14T03:06:16;12.80;;;12.10;;
17449;SDS011;8842;51.244;7.102;2023-03-14T03:11:20;12.60;;;11.93;;
17449;SDS011;8842;51.244;7.102;2023-03-14T03:16:24;12.40;;;11.80;;
17449;SDS011;8842;51.244;7.102;2023-03-14T03:21:28;12.40;;;11.80;;
17449;SDS011;8842;51.244;7.102;2023-03-14T03:31:44;13.53;;;12.83;;
17449;SDS011;8842;51.244;7.102;2023-03-14T03:36:49;13.20;;;12.50;;
17449;SDS011;8842;51.244;7.102;2023-03-14T03:42:00;12.63;;;11.97;;
17449;SDS011;8842;51.244;7.102;2023-03-14T03:47:04;14.00;;;13.30;;
17449;SDS011;8842;51.244;7.102;2023-03-14T03:52:16;14.10;;;13.40;;
17449;SDS011;8842;51.244;7.102;2023-03-14T03:57:20;14.20;;;13.50;;
17449;SDS011;8842;51.244;7.102;2023-03-14T04:02:24;15.20;;;14.40;;
17449;SDS011;8842;51.244;7.102;2023-03-14T04:07:30;15.50;;;14.70;;
17449;SDS011;8842;51.244;7.102;2023-03-14T04:12:35;15.20;;;14.40;;
17449;SDS011;8842;51.244;7.102;2023-03-14T04:17:46;15.03;;;14.23;;
17449;SDS011;8842;51.244;7.102;2023-03-14T04:22:50;15.20;;;14.40;;
17449;SDS011;8842;51.244;7.102;2023-03-14T04:28:05;15.40;;;14.60;;
17449;SDS011;8842;51.244;7.102;2023-03-14T04:38:23;14.60;;;13.80;;
17449;SDS011;8842;51.244;7.102;2023-03-14T04:43:27;14.80;;;14.00;;
17449;SDS011;8842;51.244;7.102;2023-03-14T04:48:31;15.10;;;14.30;;
17449;SDS011;8842;51.244;7.102;2023-03-14T04:53:43;15.30;;;14.50;;
17449;SDS011;8842;51.244;7.102;2023-03-14T04:58:47;15.60;;;14.80;;
17449;SDS011;8842;51.244;7.102;2023-03-14T05:03:51;16.07;;;15.17;;
17449;SDS011;8842;51.244;7.102;2023-03-14T05:09:03;16.13;;;15.23;;
17449;SDS011;8842;51.244;7.102;2023-03-14T05:14:07;16.60;;;15.70;;
17449;SDS011;8842;51.244;7.102;2023-03-14T05:19:19;16.30;;;15.40;;
17449;SDS011;8842;51.244;7.102;2023-03-14T05:24:23;16.63;;;15.63;;
17449;SDS011;8842;51.244;7.102;2023-03-14T05:34:38;16.80;;;15.90;;
17449;SDS011;8842;51.244;7.102;2023-03-14T05:39:42;16.30;;;15.40;;
17449;SDS011;8842;51.244;7.102;2023-03-14T05:44:54;16.43;;;15.53;;
17449;SDS011;8842;51.244;7.102;2023-03-14T05:49:58;16.50;;;15.60;;
17449;SDS011;8842;51.244;7.102;2023-03-14T05:55:12;16.70;;;15.80;;
17449;SDS011;8842;51.244;7.102;2023-03-14T06:00:17;16.50;;;15.60;;
17449;SDS011;8842;51.244;7.102;2023-03-14T06:05:29;16.77;;;15.80;;
17449;SDS011;8842;51.244;7.102;2023-03-14T06:10:34;16.40;;;15.50;;
17449;SDS011;8842;51.244;7.102;2023-03-14T06:15:46;16.13;;;15.23;;
17449;SDS011;8842;51.244;7.102;2023-03-14T06:20:53;15.90;;;15.00;;
17449;SDS011;8842;51.244;7.102;2023-03-14T06:26:05;16.03;;;15.13;;
17449;SDS011;8842;51.244;7.102;2023-03-14T06:36:20;15.70;;;14.80;;
17449;SDS011;8842;51.244;7.102;2023-03-14T06:41:25;16.10;;;15.20;;
17449;SDS011;8842;51.244;7.102;2023-03-14T06:46:29;16.00;;;15.10;;
17449;SDS011;8842;51.244;7.102;2023-03-14T06:51:41;16.00;;;15.10;;
17449;SDS011;8842;51.244;7.102;2023-03-14T06:56:45;15.30;;;14.50;;
17449;SDS011;8842;51.244;7.102;2023-03-14T07:01:59;15.33;;;14.53;;
17449;SDS011;8842;51.244;7.102;2023-03-14T07:07:04;15.10;;;14.30;;
17449;SDS011;8842;51.244;7.102;2023-03-14T07:12:18;15.33;;;14.53;;
17449;SDS011;8842;51.244;7.102;2023-03-14T07:17:22;15.00;;;14.20;;
17449;SDS011;8842;51.244;7.102;2023-03-14T07:22:26;14.70;;;13.90;;
17449;SDS011;8842;51.244;7.102;2023-03-14T07:27:30;15.70;;;14.90;;
17449;SDS011;8842;51.244;7.102;2023-03-14T07:32:34;15.60;;;14.80;;
17449;SDS011;8842;51.244;7.102;2023-03-14T07:37:38;14.80;;;14.00;;
17449;SDS011;8842;51.244;7.102;2023-03-14T07:42:50;15.30;;;14.50;;
17449;SDS011;8842;51.244;7.102;2023-03-14T07:53:07;15.10;;;14.30;;
17449;SDS011;8842;51.244;7.102;2023-03-14T08:03:22;14.63;;;13.83;;
17449;SDS011;8842;51.244;7.102;2023-03-14T08:08:27;14.77;;;13.97;;
17449;SDS011;8842;51.244;7.102;2023-03-14T08:13:31;15.30;;;14.50;;
17449;SDS011;8842;51.244;7.102;2023-03-14T08:18:35;15.27;;;14.47;;
17449;SDS011;8842;51.244;7.102;2023-03-14T08:23:39;15.37;;;14.57;;
17449;SDS011;8842;51.244;7.102;2023-03-14T08:28:43;16.07;;;15.17;;
17449;SDS011;8842;51.244;7.102;2023-03-14T08:33:47;15.60;;;14.80;;
17449;SDS011;8842;51.244;7.102;2023-03-14T08:44:02;16.03;;;15.13;;
17449;SDS011;8842;51.244;7.102;2023-03-14T08:49:06;15.90;;;15.00;;
17449;SDS011;8842;51.244;7.102;2023-03-14T08:54:18;15.50;;;14.70;;
17449;SDS011;8842;51.244;7.102;2023-03-14T08:59:22;15.17;;;14.37;;
17449;SDS011;8842;51.244;7.102;2023-03-14T09:04:34;15.40;;;14.60;;
17449;SDS011;8842;51.244;7.102;2023-03-14T09:09:38;15.07;;;14.27;;
17449;SDS011;8842;51.244;7.102;2023-03-14T09:14:50;15.23;;;14.43;;
17449;SDS011;8842;51.244;7.102;2023-03-14T09:19:54;15.00;;;14.20;;
17449;SDS011;8842;51.244;7.102;2023-03-14T09:24:58;15.00;;;14.20;;
17449;SDS011;8842;51.244;7.102;2023-03-14T09:30:03;14.90;;;14.10;;
17449;SDS011;8842;51.244;7.102;2023-03-14T09:35:17;14.27;;;13.47;;
17449;SDS011;8842;51.244;7.102;2023-03-14T09:45:36;15.17;;;14.37;;
17449;SDS011;8842;51.244;7.102;2023-03-14T09:50:43;14.87;;;14.07;;
17449;SDS011;8842;51.244;7.102;2023-03-14T09:55:50;14.27;;;13.57;;
17449;SDS011;8842;51.244;7.102;2023-03-14T10:00:58;14.60;;;13.80;;
17449;SDS011;8842;51.244;7.102;2023-03-14T10:06:08;14.50;;;13.70;;
17449;SDS011;8842;51.244;7.102;2023-03-14T10:11:23;14.80;;;14.00;;
17449;SDS011;8842;51.244;7.102;2023-03-14T10:16:28;14.60;;;13.80;;
17449;SDS011;8842;51.244;7.102;2023-03-14T10:21:43;14.23;;;13.47;;
17449;SDS011;8842;51.244;7.102;2023-03-14T10:26:49;15.10;;;14.30;;
17449;SDS011;8842;51.244;7.102;2023-03-14T10:32:04;15.10;;;14.30;;
17449;SDS011;8842;51.244;7.102;2023-03-14T10:37:16;14.40;;;13.60;;
17449;SDS011;8842;51.244;7.102;2023-03-14T10:42:29;14.77;;;13.97;;
17449;SDS011;8842;51.244;7.102;2023-03-14T10:47:36;14.83;;;14.03;;
17449;SDS011;8842;51.244;7.102;2023-03-14T10:52:47;14.90;;;14.10;;
17449;SDS011;8842;51.244;7.102;2023-03-14T10:57:51;14.90;;;14.10;;
17449;SDS011;8842;51.244;7.102;2023-03-14T11:03:08;14.47;;;13.67;;
17449;SDS011;8842;51.244;7.102;2023-03-14T11:08:17;15.00;;;14.20;;
17449;SDS011;8842;51.244;7.102;2023-03-14T11:13:33;14.70;;;13.90;;
17449;SDS011;8842;51.244;7.102;2023-03-14T11:19:01;14.40;;;13.60;;
17449;SDS011;8842;51.244;7.102;2023-03-14T11:24:28;13.90;;;13.20;;
17449;SDS011;8842;51.244;7.102;2023-03-14T11:29:39;14.23;;;13.43;;
17449;SDS011;8842;51.244;7.102;2023-03-14T11:34:53;13.97;;;13.27;;
17449;SDS011;8842;51.244;7.102;2023-03-14T11:40:01;13.97;;;13.27;;
17449;SDS011;8842;51.244;7.102;2023-03-14T11:45:14;13.80;;;13.10;;
17449;SDS011;8842;51.244;7.102;2023-03-14T11:50:22;14.40;;;13.60;;
17449;SDS011;8842;51.244;7.102;2023-03-14T11:55:36;13.60;;;12.90;;
17449;SDS011;8842;51.244;7.102;2023-03-14T12:06:01;14.00;;;13.30;;
17449;SDS011;8842;51.244;7.102;2023-03-14T12:11:12;13.37;;;12.67;;
17449;SDS011;8842;51.244;7.102;2023-03-14T12:16:33;13.60;;;12.90;;
17449;SDS011;8842;51.244;7.102;2023-03-14T12:21:48;13.23;;;12.53;;
17449;SDS011;8842;51.244;7.102;2023-03-14T12:27:04;13.37;;;12.67;;
17449;SDS011;8842;51.244;7.102;2023-03-14T12:32:22;13.57;;;12.87;;
17449;SDS011;8842;51.244;7.102;2023-03-14T12:37:28;13.50;;;12.80;;
17449;SDS011;8842;51.244;7.102;2023-03-14T12:42:38;12.97;;;12.27;;
17449;SDS011;8842;51.244;7.102;2023-03-14T12:48:01;13.10;;;12.40;;
17449;SDS011;8842;51.244;7.102;2023-03-14T12:53:24;13.17;;;12.47;;
17449;SDS011;8842;51.244;7.102;2023-03-14T12:58:47;13.20;;;12.50;;
17449;SDS011;8842;51.244;7.102;2023-03-14T13:03:55;13.87;;;13.17;;
17449;SDS011;8842;51.244;7.102;2023-03-14T13:09:14;13.37;;;12.67;;
17449;SDS011;8842;51.244;7.102;2023-03-14T13:14:47;13.47;;;12.77;;
17449;SDS011;8842;51.244;7.102;2023-03-14T13:19:55;13.90;;;13.20;;
17449;SDS011;8842;51.244;7.102;2023-03-14T13:25:04;14.20;;;13.50;;
17449;SDS011;8842;51.244;7.102;2023-03-14T13:30:17;13.83;;;13.13;;
17449;SDS011;8842;51.244;7.102;2023-03-14T13:35:25;13.57;;;12.87;;
17449;SDS011;8842;51.244;7.102;2023-03-14T13:40:32;13.07;;;12.37;;
17449;SDS011;8842;51.244;7.102;2023-03-14T13:45:50;13.33;;;12.63;;
17449;SDS011;8842;51.244;7.102;2023-03-14T13:50:58;13.20;;;12.50;;
17449;SDS011;8842;51.244;7.102;2023-03-14T13:56:05;13.33;;;12.63;;
17449;SDS011;8842;51.244;7.102;2023-03-14T14:01:14;13.60;;;12.90;;
17449;SDS011;8842;51.244;7.102;2023-03-14T14:06:26;12.77;;;12.13;;
17449;SDS011;8842;51.244;7.102;2023-03-14T14:11:36;13.10;;;12.30;;
17449;SDS011;8842;51.244;7.102;2023-03-14T14:16:50;12.30;;;11.70;;
17449;SDS011;8842;51.244;7.102;2023-03-14T14:21:56;12.20;;;11.60;;
17449;SDS011;8842;51.244;7.102;2023-03-14T14:27:01;12.60;;;11.97;;
17449;SDS011;8842;51.244;7.102;2023-03-14T14:32:11;11.87;;;11.27;;
17449;SDS011;8842;51.244;7.102;2023-03-14T14:37:21;12.47;;;11.87;;
17449;SDS011;8842;51.244;7.102;2023-03-14T14:42:28;12.00;;;11.40;;
17449;SDS011;8842;51.244;7.102;2023-03-14T14:47:48;11.90;;;11.30;;
17449;SDS011;8842;51.244;7.102;2023-03-14T14:52:55;11.50;;;10.90;;
17449;SDS011;8842;51.244;7.102;2023-03-14T14:58:11;11.10;;;10.50;;
17449;SDS011;8842;51.244;7.102;2023-03-14T15:03:18;10.00;;;9.50;;
17449;SDS011;8842;51.244;7.102;2023-03-14T15:08:25;9.50;;;9.00;;
17449;SDS011;8842;51.244;7.102;2023-03-14T15:13:30;10.23;;;9.73;;
17449;SDS011;8842;51.244;7.102;2023-03-14T15:18:44;9.40;;;8.90;;
17449;SDS011;8842;51.244;7.102;2023-03-14T15:23:52;9.17;;;8.70;;
17449;SDS011;8842;51.244;7.102;2023-03-14T15:28:57;9.47;;;8.97;;
17449;SDS011;8842;51.244;7.102;2023-03-14T15:39:13;9.40;;;8.90;;
17449;SDS011;8842;51.244;7.102;2023-03-14T15:44:29;8.90;;;8.50;;
17449;SDS011;8842;51.244;7.102;2023-03-14T15:49:33;9.13;;;8.70;;
17449;SDS011;8842;51.244;7.102;2023-03-14T15:54:45;9.10;;;8.70;;
17449;SDS011;8842;51.244;7.102;2023-03-14T15:59:49;8.30;;;7.90;;
17449;SDS011;8842;51.244;7.102;2023-03-14T16:05:01;8.50;;;8.10;;
17449;SDS011;8842;51.244;7.102;2023-03-14T16:10:06;9.70;;;9.20;;
17449;SDS011;8842;51.244;7.102;2023-03-14T16:15:14;9.23;;;8.73;;
17449;SDS011;8842;51.244;7.102;2023-03-14T16:20:18;9.33;;;8.83;;
17449;SDS011;8842;51.244;7.102;2023-03-14T16:25:30;9.97;;;9.47;;
17449;SDS011;8842;51.244;7.102;2023-03-14T16:30:34;9.33;;;8.83;;
17449;SDS011;8842;51.244;7.102;2023-03-14T16:35:54;9.60;;;9.10;;
17449;SDS011;8842;51.244;7.102;2023-03-14T16:41:06;9.60;;;9.10;;
17449;SDS011;8842;51.244;7.102;2023-03-14T16:46:20;9.70;;;9.20;;
17449;SDS011;8842;51.244;7.102;2023-03-14T16:56:35;9.80;;;9.30;;
17449;SDS011;8842;51.244;7.102;2023-03-14T17:01:39;10.40;;;9.90;;
17449;SDS011;8842;51.244;7.102;2023-03-14T17:06:44;10.47;;;9.97;;
17449;SDS011;8842;51.244;7.102;2023-03-14T17:11:56;10.20;;;9.70;;
17449;SDS011;8842;51.244;7.102;2023-03-14T17:17:00;10.30;;;9.80;;
17449;SDS011;8842;51.244;7.102;2023-03-14T17:22:04;10.30;;;9.80;;
17449;SDS011;8842;51.244;7.102;2023-03-14T17:27:16;9.80;;;9.30;;
17449;SDS011;8842;51.244;7.102;2023-03-14T17:32:21;9.83;;;9.33;;
17449;SDS011;8842;51.244;7.102;2023-03-14T17:37:27;10.47;;;9.97;;
17449;SDS011;8842;51.244;7.102;2023-03-14T17:42:31;8.30;;;7.90;;
17449;SDS011;8842;51.244;7.102;2023-03-14T17:47:43;9.20;;;8.80;;
17449;SDS011;8842;51.244;7.102;2023-03-14T17:52:47;10.20;;;9.70;;
17449;SDS011;8842;51.244;7.102;2023-03-14T17:58:01;10.87;;;10.27;;
17449;SDS011;8842;51.244;7.102;2023-03-14T18:03:05;10.80;;;10.20;;
17449;SDS011;8842;51.244;7.102;2023-03-14T18:08:11;11.17;;;10.57;;
17449;SDS011;8842;51.244;7.102;2023-03-14T18:13:16;19.17;;;10.80;;
17449;SDS011;8842;51.244;7.102;2023-03-14T18:18:20;10.90;;;10.30;;
17449;SDS011;8842;51.244;7.102;2023-03-14T18:23:24;10.50;;;10.00;;
17449;SDS011;8842;51.244;7.102;2023-03-14T18:28:28;11.47;;;10.87;;
17449;SDS011;8842;51.244;7.102;2023-03-14T18:33:33;11.17;;;10.57;;
17449;SDS011;8842;51.244;7.102;2023-03-14T18:38:44;11.40;;;10.80;;
17449;SDS011;8842;51.244;7.102;2023-03-14T18:43:50;11.33;;;10.73;;
17449;SDS011;8842;51.244;7.102;2023-03-14T18:49:02;11.30;;;10.70;;
17449;SDS011;8842;51.244;7.102;2023-03-14T18:54:06;11.00;;;10.40;;
17449;SDS011;8842;51.244;7.102;2023-03-14T18:59:18;10.77;;;10.17;;
17449;SDS011;8842;51.244;7.102;2023-03-14T19:04:22;11.53;;;10.93;;
17449;SDS011;8842;51.244;7.102;2023-03-14T19:09:26;11.10;;;10.50;;
17449;SDS011;8842;51.244;7.102;2023-03-14T19:14:30;10.93;;;10.33;;
17449;SDS011;8842;51.244;7.102;2023-03-14T19:19:34;11.30;;;10.70;;
17449;SDS011;8842;51.244;7.102;2023-03-14T19:24:58;10.90;;;10.30;;
17449;SDS011;8842;51.244;7.102;2023-03-14T19:30:03;11.13;;;10.53;;
17449;SDS011;8842;51.244;7.102;2023-03-14T19:35:09;10.90;;;10.30;;
17449;SDS011;8842;51.244;7.102;2023-03-14T19:40:13;11.00;;;10.40;;
17449;SDS011;8842;51.244;7.102;2023-03-14T19:45:18;10.37;;;9.87;;
17449;SDS011;8842;51.244;7.102;2023-03-14T19:50:22;11.30;;;10.70;;
17449;SDS011;8842;51.244;7.102;2023-03-14T20:00:47;9.10;;;8.60;;
17449;SDS011;8842;51.244;7.102;2023-03-14T20:05:51;10.40;;;9.90;;
17449;SDS011;8842;51.244;7.102;2023-03-14T20:11:07;10.00;;;9.50;;
17449;SDS011;8842;51.244;7.102;2023-03-14T20:16:12;10.90;;;10.30;;
17449;SDS011;8842;51.244;7.102;2023-03-14T20:21:16;10.53;;;10.03;;
17449;SDS011;8842;51.244;7.102;2023-03-14T20:26:20;11.30;;;10.70;;
17449;SDS011;8842;51.244;7.102;2023-03-14T20:31:35;11.20;;;10.60;;
17449;SDS011;8842;51.244;7.102;2023-03-14T20:36:39;11.40;;;10.80;;
17449;SDS011;8842;51.244;7.102;2023-03-14T20:41:51;11.80;;;11.10;;
17449;SDS011;8842;51.244;7.102;2023-03-14T20:52:08;11.73;;;11.00;;
17449;SDS011;8842;51.244;7.102;2023-03-14T20:57:13;10.80;;;10.20;;
17449;SDS011;8842;51.244;7.102;2023-03-14T21:02:18;10.70;;;10.10;;
17449;SDS011;8842;51.244;7.102;2023-03-14T21:07:22;11.07;;;10.47;;
17449;SDS011;8842;51.244;7.102;2023-03-14T21:12:26;10.90;;;10.30;;
17449;SDS011;8842;51.244;7.102;2023-03-14T21:17:30;11.00;;;10.40;;
17449;SDS011;8842;51.244;7.102;2023-03-14T21:22:35;10.87;;;10.27;;
17449;SDS011;8842;51.244;7.102;2023-03-14T21:27:46;11.07;;;10.47;;
17449;SDS011;8842;51.244;7.102;2023-03-14T21:32:51;10.30;;;9.80;;
17449;SDS011;8842;51.244;7.102;2023-03-14T21:38:06;10.33;;;9.83;;
17449;SDS011;8842;51.244;7.102;2023-03-14T21:43:10;11.30;;;10.70;;
17449;SDS011;8842;51.244;7.102;2023-03-14T21:53:27;10.83;;;10.23;;
17449;SDS011;8842;51.244;7.102;2023-03-14T21:58:31;10.83;;;10.23;;
17449;SDS011;8842;51.244;7.102;2023-03-14T22:03:45;10.90;;;10.30;;
17449;SDS011;8842;51.244;7.102;2023-03-14T22:08:49;11.00;;;10.40;;
17449;SDS011;8842;51.244;7.102;2023-03-14T22:13:54;10.50;;;10.00;;
17449;SDS011;8842;51.244;7.102;2023-03-14T22:18:58;10.70;;;10.10;;
17449;SDS011;8842;51.244;7.102;2023-03-14T22:24:09;10.50;;;10.00;;
17449;SDS011;8842;51.244;7.102;2023-03-14T22:29:21;10.10;;;9.60;;
17449;SDS011;8842;51.244;7.102;2023-03-14T22:57:34;10.97;;;10.37;;
17449;SDS011;8842;51.244;7.102;2023-03-14T23:02:39;10.33;;;9.83;;
17449;SDS011;8842;51.244;7.102;2023-03-14T23:07:51;10.60;;;10.00;;
17449;SDS011;8842;51.244;7.102;2023-03-14T23:12:55;14.07;;;10.30;;
17449;SDS011;8842;51.244;7.102;2023-03-14T23:18:07;10.50;;;10.00;;
17449;SDS011;8842;51.244;7.102;2023-03-14T23:23:12;10.37;;;9.87;;
17449;SDS011;8842;51.244;7.102;2023-03-14T23:28:23;10.50;;;10.00;;
17449;SDS011;8842;51.244;7.102;2023-03-14T23:33:27;10.40;;;9.90;;
17449;SDS011;8842;51.244;7.102;2023-03-14T23:43:46;11.30;;;10.70;;
17449;SDS011;8842;51.244;7.102;2023-03-14T23:48:50;11.00;;;10.40;;
17449;SDS011;8842;51.244;7.102;2023-03-14T23:54:04;11.30;;;10.60;;
17449;SDS011;8842;51.244;7.102;2023-03-14T23:59:18;11.97;;;11.17;;
